Manns Choice, PA

12:26 AM EDT on August 23, 2014 (GMT -0400)
Altoona-Blair County | Change Station
CLOSE
Current Station
Airport
Location: Altoona,
Elevation: 1503 ft
Nearby Weather Stations

Elev 1503 ft 40.30 °N, 78.32 °W | Updated 33 minutes ago

Overcast
Overcast
68 °F
Feels Like 68 °F
N
4
Wind Variable Wind from South

Today
High -- | Low -- °F
--% Chance of Precip.
Yesterday
High -- | Low -- °F
Precip. -- in
6:33 AM 7:59 PM
Waning Crescent, 5% visible
Pressure 30.01 in
Visibility 4.0 miles
Clouds Overcast 2300 ft
Dew Point 67 °F
Humidity 96%
Rainfall 0.24 in
Snow Depth Not available.
UV 0 out of 12
Pollen 8.80 out of 12
Air Quality Not available.
Flu Activity Not available.
METAR KAOO 230353Z AUTO 18003KT 4SM BR OVC023 20/19 A3003 RMK AO2 SLP162 T02000194

More Conditions Fewer Conditions

Pressure 30.01 in
Visibility 4.0 miles
Clouds Overcast 2300 ft
Dew Point 67 °F
Humidity 96%
Rainfall 0.24 in
Snow Depth Not available.
UV 0 out of 12
Pollen 8.80 out of 12
Air Quality Not available.
Flu Activity Not available.
METAR KAOO 230353Z AUTO 18003KT 4SM BR OVC023 20/19 A3003 RMK AO2 SLP162 T02000194

More Conditions Fewer Conditions

Nowcast | as of 11:45 PM EDT on August 22, 2014

Isolated showers and thunderstorms will be across the Laurel Highlands and south central mountains through 2 am. Some storms will contain torrential downpours. The showers and storms are moving southeast at 15 mph. Most of the activity will be south and west of an Ebensburg...Bedford line.

×

10-Day Weather Forecast

Almanac

Astronomy

Aug. 23, 2014 Rise Set
Actual Time 6:33 AM EDT 7:59 PM EDT
Civil Twilight 6:05 AM EDT 8:28 PM EDT
Nautical Twilight 5:31 AM EDT 9:02 PM EDT
Astronomical Twilight 4:55 AM EDT 9:37 PM EDT
Moon 4:48 AM EDT 6:43 PM EDT
Length of Visible Light 14h 22m
Length of Day
13h 25m
Tomorrow will be 2m 26s shorter.
Waning Crescent, 5% of the Moon is Illuminated
Today
Waning Crescent
Aug 25
New
Sep 2
First Quarter
Sep 8
Full
Sep 15
Last Quarter

Yesterday's Extremes

State Highs State Lows

Community

WunderPhotos

Upload Photos

1,746,358 photos uploaded!

WunderBlogs® & News

By Dr. Jeff Masters
Director of Meteorology, Weather Underground
By Kari Strenfel
Meteorologist, Weather Underground
By Christopher C. Burt
Weather Historian, Weather Underground
August 23, 2014
August 22, 2014
August 22, 2014

Nearby

Snow Depth

Station Depth Elevation
No new snow has been reported.

Earthquake Activity

City Distance Mag. Time & Date
No recent earthquake activity has been reported nearby.
Minimum magnitude displayed is 2.5.

Coastal Water Temperatures

Place Temperature
No Stations Reporting

Nearby Weather Stations